Meamina — 2AMK7 — position and weather

sailwx.info

Track history (hours):
 
Tides and Currents Weather Stations Pressure Air Temp Water Temp Dewpoint Dewpoint Depression Visibility Wind Speed Wind Dir Waves Ship Positions

Meamina

Last reported at 2015-Apr-28 09:32 UTC. Time now 2015-Apr-28 10:20 UTC.
Position N 37°27' E 025°19'.

Length 60 m; draft 3.2 m.

MMSI: 235061022.

Date/timePositionNaut miles runAvg speedWind from/ knotsBaromVisibWave heightAir tempDewpointWater temp
2015-Apr-28 09:32N 37°27' E 025°19'0 0.0
2015-Apr-28 08:32N 37°27' E 025°19'0 0.0
2015-Apr-28 07:32N 37°27' E 025°19'0 0.0
2015-Apr-28 06:32N 37°27' E 025°19'0 0.0
2015-Apr-28 05:32N 37°27' E 025°19'0 0.0
2015-Apr-28 04:32N 37°27' E 025°19'0 0.0
2015-Apr-28 03:32N 37°27' E 025°19'0 0.0
2015-Apr-28 02:33N 37°27' E 025°19'0 0.0
2015-Apr-28 01:30N 37°27' E 025°19'0 0.0
2015-Apr-28 00:32N 37°27' E 025°19'0 0.0
2015-Apr-27 23:32N 37°27' E 025°19'0 0.0
2015-Apr-27 22:32N 37°27' E 025°19'0 0.0
2015-Apr-27 21:32N 37°27' E 025°19'0 0.0
2015-Apr-27 20:32N 37°27' E 025°19'0 0.0
2015-Apr-27 19:32N 37°27' E 025°19'0 0.0
2015-Apr-27 18:32N 37°27' E 025°19'0 0.0
2015-Apr-27 17:32N 37°27' E 025°19'6 6.0
2015-Apr-27 16:34N 37°27' E 025°12'3 3.2
2015-Apr-27 15:33N 37°24' E 025°13'0 0.0
2015-Apr-27 14:34N 37°24' E 025°13'0 0.0
2015-Apr-27 13:33N 37°24' E 025°13'0 0.0
2015-Apr-27 12:34N 37°24' E 025°13'0 0.0
2015-Apr-27 11:34N 37°24' E 025°13'0 0.0
2015-Apr-27 10:34N 37°24' E 025°13'3 2.9
2015-Apr-27 09:34N 37°24' E 025°10'1010.2
2015-Apr-27 08:33N 37°27' E 024°57'0 0.0
2015-Apr-27 07:33N 37°27' E 024°57'0 0.0
2015-Apr-27 06:33N 37°27' E 024°57'0 0.0
2015-Apr-27 05:33N 37°27' E 024°57'0 0.0
2015-Apr-27 04:33N 37°27' E 024°57'0 0.0
2015-Apr-27 03:33N 37°27' E 024°57'0 0.0
2015-Apr-27 02:33N 37°27' E 024°57'0 0.0
2015-Apr-27 01:33N 37°27' E 024°57'0 0.0
2015-Apr-27 00:33N 37°27' E 024°57'0 0.0
2015-Apr-26 23:27N 37°27' E 024°57'0 0.0
2015-Apr-26 22:33N 37°27' E 024°57'0 0.0
2015-Apr-26 21:33N 37°27' E 024°57'0 0.0
2015-Apr-26 20:33N 37°27' E 024°57'0 0.0
2015-Apr-26 19:33N 37°27' E 024°57'0 0.0
2015-Apr-26 18:33N 37°27' E 024°57'0 0.0
2015-Apr-26 17:33N 37°27' E 024°57'0 0.0
2015-Apr-26 16:33N 37°27' E 024°57'0 0.0
2015-Apr-26 15:33N 37°27' E 024°57'5 4.9
2015-Apr-26 14:33N 37°22' E 024°55'9 9.2
2015-Apr-26 13:33N 37°25' E 024°44'49 1.2
2015-Apr-24 19:12N 37°39' E 023°45'812.7
2015-Apr-24 18:33N 37°46' E 023°39'1010.0
2015-Apr-24 17:34N 37°56' E 023°39'0 0.0
2015-Apr-24 16:33N 37°56' E 023°39'0 0.0
2015-Apr-24 15:33N 37°56' E 023°39'0 0.0
2015-Apr-24 14:34N 37°56' E 023°39'0 0.0
2015-Apr-24 13:34N 37°56' E 023°39'0 0.0
2015-Apr-24 12:34N 37°56' E 023°39'0 0.0
2015-Apr-24 11:34N 37°56' E 023°39'0 0.0
2015-Apr-24 10:34N 37°56' E 023°39'0 0.0
2015-Apr-24 09:34N 37°56' E 023°39'0 0.0
2015-Apr-24 08:33N 37°56' E 023°39'0 0.0
2015-Apr-24 07:34N 37°56' E 023°39'0 0.0
2015-Apr-24 06:33N 37°56' E 023°39'0 0.0
2015-Apr-24 05:33N 37°56' E 023°39'0 0.0
2015-Apr-24 04:33N 37°56' E 023°39'0 0.0
2015-Apr-24 03:33N 37°56' E 023°39'0 0.0
2015-Apr-24 02:33N 37°56' E 023°39'0 0.0
2015-Apr-24 01:33N 37°56' E 023°39'0 0.0
2015-Apr-24 00:34N 37°56' E 023°39'0 0.0
2015-Apr-23 23:33N 37°56' E 023°39'0 0.0
2015-Apr-23 22:34N 37°56' E 023°39'0 0.0
2015-Apr-23 21:33N 37°56' E 023°39'0 0.0
2015-Apr-23 20:33N 37°56' E 023°39'0 0.0
2015-Apr-23 19:34N 37°56' E 023°39'0 0.0
2015-Apr-23 18:34N 37°56' E 023°39'0 0.0
2015-Apr-23 17:33N 37°56' E 023°39'0 0.0
2015-Apr-23 16:33N 37°56' E 023°39'0 0.0
2015-Apr-23 15:34N 37°56' E 023°39'0 0.0
2015-Apr-23 14:34N 37°56' E 023°39'0 0.0
2015-Apr-23 13:34N 37°56' E 023°39'0 0.0
2015-Apr-23 12:34N 37°56' E 023°39'0 0.0
2015-Apr-23 11:34N 37°56' E 023°39'0 0.0
2015-Apr-23 10:33N 37°56' E 023°39'0 0.0
2015-Apr-23 09:34N 37°56' E 023°39'0 0.0
2015-Apr-23 08:34N 37°56' E 023°39'0 0.0
2015-Apr-23 07:33N 37°56' E 023°39'0 0.0
2015-Apr-23 06:34N 37°56' E 023°39'0 0.0
2015-Apr-23 05:33N 37°56' E 023°39'0 0.0
2015-Apr-23 04:34N 37°56' E 023°39'0 0.0
2015-Apr-23 03:34N 37°56' E 023°39'0 0.0
2015-Apr-23 02:34N 37°56' E 023°39'0 0.0
2015-Apr-23 01:33N 37°56' E 023°39'0 0.0
2015-Apr-23 00:33N 37°56' E 023°39'0 0.0
2015-Apr-22 23:33N 37°56' E 023°39'0 0.0
2015-Apr-22 22:34N 37°56' E 023°39'0 0.0
2015-Apr-22 21:33N 37°56' E 023°39'0 0.0
2015-Apr-22 20:34N 37°56' E 023°39'0 0.0
2015-Apr-22 19:34N 37°56' E 023°39'0 0.0
2015-Apr-22 18:34N 37°56' E 023°39'0 0.0
2015-Apr-22 17:34N 37°56' E 023°39'0 0.0
2015-Apr-22 16:34N 37°56' E 023°39'0 0.0
2015-Apr-22 15:34N 37°56' E 023°39'0 0.0
2015-Apr-22 14:34N 37°56' E 023°39'0 0.0
2015-Apr-22 13:34N 37°56' E 023°39'0 0.0
2015-Apr-22 12:34N 37°56' E 023°39'0 0.0
2015-Apr-22 11:33N 37°56' E 023°39'0 0.0
2015-Apr-22 10:34N 37°56' E 023°39'0 0.0
2015-Apr-22 09:33N 37°56' E 023°39'0 0.0
2015-Apr-22 08:33N 37°56' E 023°39'0 0.0
2015-Apr-22 07:33N 37°56' E 023°39'0 0.0
2015-Apr-22 06:33N 37°56' E 023°39'0 0.0
2015-Apr-22 05:33N 37°56' E 023°39'0 0.0
2015-Apr-22 04:34N 37°56' E 023°39'0 0.0
2015-Apr-22 03:33N 37°56' E 023°39'0 0.0
2015-Apr-22 02:33N 37°56' E 023°39'0 0.0
2015-Apr-22 01:32N 37°56' E 023°39'0 0.0
2015-Apr-22 00:33N 37°56' E 023°39'0 0.0
2015-Apr-21 23:33N 37°56' E 023°39'0 0.0
2015-Apr-21 22:33N 37°56' E 023°39'0 0.0
2015-Apr-21 21:34N 37°56' E 023°39'0 0.0
2015-Apr-21 20:34N 37°56' E 023°39'0 0.0
2015-Apr-21 19:34N 37°56' E 023°39'0 0.0
2015-Apr-21 18:33N 37°56' E 023°39'0 0.0
2015-Apr-21 17:33N 37°56' E 023°39'0 0.0
2015-Apr-21 16:34N 37°56' E 023°39'0 0.0
2015-Apr-21 15:33N 37°56' E 023°39'0 0.0
2015-Apr-21 14:33N 37°56' E 023°39'0 0.0
2015-Apr-21 13:34N 37°56' E 023°39'0 0.0
2015-Apr-21 12:34N 37°56' E 023°39'0 0.0
2015-Apr-21 11:34N 37°56' E 023°39'0 0.0
2015-Apr-21 10:33N 37°56' E 023°39'0 0.0
2015-Apr-21 09:33N 37°56' E 023°39'0 0.0
2015-Apr-21 08:33N 37°56' E 023°39'0 0.0
2015-Apr-21 07:33N 37°56' E 023°39'0 0.0
2015-Apr-21 06:33N 37°56' E 023°39'0 0.0
2015-Apr-21 05:33N 37°56' E 023°39'0 0.0
2015-Apr-21 04:34N 37°56' E 023°39'0 0.0
2015-Apr-21 03:33N 37°56' E 023°39'0 0.0
2015-Apr-21 02:34N 37°56' E 023°39'0 0.0
2015-Apr-21 01:33N 37°56' E 023°39'0 0.0
2015-Apr-21 00:34N 37°56' E 023°39'0 0.0
2015-Apr-20 23:33N 37°56' E 023°39'0 0.0
2015-Apr-20 22:33N 37°56' E 023°39'0 0.0
2015-Apr-20 21:34N 37°56' E 023°39'0 0.0
2015-Apr-20 20:34N 37°56' E 023°39'0 0.0
2015-Apr-20 19:34N 37°56' E 023°39'0 0.0
2015-Apr-20 18:33N 37°56' E 023°39'0 0.0
2015-Apr-20 17:34N 37°56' E 023°39'0 0.0
2015-Apr-20 16:33N 37°56' E 023°39'0 0.0
2015-Apr-20 15:33N 37°56' E 023°39'0 0.0
2015-Apr-20 14:33N 37°56' E 023°39'0 0.0
2015-Apr-20 13:33N 37°56' E 023°39'0 0.0
2015-Apr-20 12:34N 37°56' E 023°39'0 0.0
2015-Apr-20 11:34N 37°56' E 023°39'0 0.0
2015-Apr-20 10:33N 37°56' E 023°39'0 0.0
2015-Apr-20 09:33N 37°56' E 023°39'0 0.0
2015-Apr-20 08:33N 37°56' E 023°39'0 0.0
2015-Apr-20 07:34N 37°56' E 023°39'0 0.0
2015-Apr-20 06:33N 37°56' E 023°39'0 0.0
2015-Apr-20 05:34N 37°56' E 023°39'0 0.0
2015-Apr-20 04:33N 37°56' E 023°39'0 0.0
2015-Apr-20 03:33N 37°56' E 023°39'0 0.0
2015-Apr-20 02:33N 37°56' E 023°39'0 0.0
2015-Apr-20 01:34N 37°56' E 023°39'0 0.0
2015-Apr-20 00:32N 37°56' E 023°39'0 0.0
2015-Apr-19 23:34N 37°56' E 023°39'0 0.0
2015-Apr-19 22:33N 37°56' E 023°39'0 0.0
2015-Apr-19 21:34N 37°56' E 023°39'0 0.0
2015-Apr-19 20:34N 37°56' E 023°39'0 0.0
2015-Apr-19 19:33N 37°56' E 023°39'0 0.0
2015-Apr-19 18:33N 37°56' E 023°39'0 0.0
2015-Apr-19 17:33N 37°56' E 023°39'0 0.0
2015-Apr-19 16:33N 37°56' E 023°39'0 0.0
2015-Apr-19 15:33N 37°56' E 023°39'0 0.0
2015-Apr-19 14:34N 37°56' E 023°39'0 0.0
2015-Apr-19 13:34N 37°56' E 023°39'0 0.0
2015-Apr-19 12:34N 37°56' E 023°39'0 0.0
2015-Apr-19 11:33N 37°56' E 023°39'0 0.0
2015-Apr-19 10:34N 37°56' E 023°39'0 0.0
2015-Apr-19 09:34N 37°56' E 023°39'0 0.0
2015-Apr-19 08:33N 37°56' E 023°39'0 0.0
2015-Apr-19 07:33N 37°56' E 023°39'0 0.0
2015-Apr-19 06:33N 37°56' E 023°39'0 0.0
2015-Apr-19 05:33N 37°56' E 023°39'0 0.0
2015-Apr-19 04:33N 37°56' E 023°39'0 0.0
2015-Apr-19 03:33N 37°56' E 023°39'0 0.0
2015-Apr-19 02:34N 37°56' E 023°39'0 0.0
2015-Apr-19 01:34N 37°56' E 023°39'0 0.0
2015-Apr-19 00:33N 37°56' E 023°39'0 0.0
2015-Apr-18 23:34N 37°56' E 023°39'0 0.0
2015-Apr-18 22:33N 37°56' E 023°39'0 0.0
2015-Apr-18 21:34N 37°56' E 023°39'0 0.0
2015-Apr-18 20:34N 37°56' E 023°39'0 0.0
2015-Apr-18 19:34N 37°56' E 023°39'0 0.0
2015-Apr-18 18:34N 37°56' E 023°39'0 0.0
2015-Apr-18 17:34N 37°56' E 023°39'0 0.0
2015-Apr-18 16:33N 37°56' E 023°39'0 0.0
2015-Apr-18 15:33N 37°56' E 023°39'0 0.0
2015-Apr-18 14:33N 37°56' E 023°39'0 0.0
2015-Apr-18 13:33N 37°56' E 023°39'0 0.0
2015-Apr-18 12:34N 37°56' E 023°39'0 0.0
2015-Apr-18 11:34N 37°56' E 023°39'0 0.0
2015-Apr-18 10:33N 37°56' E 023°39'0 0.0
2015-Apr-18 09:33N 37°56' E 023°39'  
Track history (hours):
 
Tides and Currents Weather Stations Pressure Air Temp Water Temp Dewpoint Dewpoint Depression Visibility Wind Speed Wind Dir Waves Ship Positions

Meamina

Last reported at 2015-Apr-28 09:32 UTC. Time now 2015-Apr-28 10:20 UTC.
Position N 37°27' E 025°19'.

Length 60 m; draft 3.2 m.

MMSI: 235061022.

Date/timePositionNaut miles runAvg speedWind from/ knotsBaromVisibWave heightAir tempDewpointWater temp
2015-Apr-28 09:32N 37°27' E 025°19'0 0.0
2015-Apr-28 08:32N 37°27' E 025°19'0 0.0
2015-Apr-28 07:32N 37°27' E 025°19'0 0.0
2015-Apr-28 06:32N 37°27' E 025°19'0 0.0
2015-Apr-28 05:32N 37°27' E 025°19'0 0.0
2015-Apr-28 04:32N 37°27' E 025°19'0 0.0
2015-Apr-28 03:32N 37°27' E 025°19'0 0.0
2015-Apr-28 02:33N 37°27' E 025°19'0 0.0
2015-Apr-28 01:30N 37°27' E 025°19'0 0.0
2015-Apr-28 00:32N 37°27' E 025°19'0 0.0
2015-Apr-27 23:32N 37°27' E 025°19'0 0.0
2015-Apr-27 22:32N 37°27' E 025°19'0 0.0
2015-Apr-27 21:32N 37°27' E 025°19'0 0.0
2015-Apr-27 20:32N 37°27' E 025°19'0 0.0
2015-Apr-27 19:32N 37°27' E 025°19'0 0.0
2015-Apr-27 18:32N 37°27' E 025°19'0 0.0
2015-Apr-27 17:32N 37°27' E 025°19'6 6.0
2015-Apr-27 16:34N 37°27' E 025°12'3 3.2
2015-Apr-27 15:33N 37°24' E 025°13'0 0.0
2015-Apr-27 14:34N 37°24' E 025°13'0 0.0
2015-Apr-27 13:33N 37°24' E 025°13'0 0.0
2015-Apr-27 12:34N 37°24' E 025°13'0 0.0
2015-Apr-27 11:34N 37°24' E 025°13'0 0.0
2015-Apr-27 10:34N 37°24' E 025°13'3 2.9
2015-Apr-27 09:34N 37°24' E 025°10'1010.2
2015-Apr-27 08:33N 37°27' E 024°57'0 0.0
2015-Apr-27 07:33N 37°27' E 024°57'0 0.0
2015-Apr-27 06:33N 37°27' E 024°57'0 0.0
2015-Apr-27 05:33N 37°27' E 024°57'0 0.0
2015-Apr-27 04:33N 37°27' E 024°57'0 0.0
2015-Apr-27 03:33N 37°27' E 024°57'0 0.0
2015-Apr-27 02:33N 37°27' E 024°57'0 0.0
2015-Apr-27 01:33N 37°27' E 024°57'0 0.0
2015-Apr-27 00:33N 37°27' E 024°57'0 0.0
2015-Apr-26 23:27N 37°27' E 024°57'0 0.0
2015-Apr-26 22:33N 37°27' E 024°57'0 0.0
2015-Apr-26 21:33N 37°27' E 024°57'0 0.0
2015-Apr-26 20:33N 37°27' E 024°57'0 0.0
2015-Apr-26 19:33N 37°27' E 024°57'0 0.0
2015-Apr-26 18:33N 37°27' E 024°57'0 0.0
2015-Apr-26 17:33N 37°27' E 024°57'0 0.0
2015-Apr-26 16:33N 37°27' E 024°57'0 0.0
2015-Apr-26 15:33N 37°27' E 024°57'5 4.9
2015-Apr-26 14:33N 37°22' E 024°55'9 9.2
2015-Apr-26 13:33N 37°25' E 024°44'49 1.2
2015-Apr-24 19:12N 37°39' E 023°45'812.7
2015-Apr-24 18:33N 37°46' E 023°39'1010.0
2015-Apr-24 17:34N 37°56' E 023°39'0 0.0
2015-Apr-24 16:33N 37°56' E 023°39'0 0.0
2015-Apr-24 15:33N 37°56' E 023°39'0 0.0
2015-Apr-24 14:34N 37°56' E 023°39'0 0.0
2015-Apr-24 13:34N 37°56' E 023°39'0 0.0
2015-Apr-24 12:34N 37°56' E 023°39'0 0.0
2015-Apr-24 11:34N 37°56' E 023°39'0 0.0
2015-Apr-24 10:34N 37°56' E 023°39'0 0.0
2015-Apr-24 09:34N 37°56' E 023°39'0 0.0
2015-Apr-24 08:33N 37°56' E 023°39'0 0.0
2015-Apr-24 07:34N 37°56' E 023°39'0 0.0
2015-Apr-24 06:33N 37°56' E 023°39'0 0.0
2015-Apr-24 05:33N 37°56' E 023°39'0 0.0
2015-Apr-24 04:33N 37°56' E 023°39'0 0.0
2015-Apr-24 03:33N 37°56' E 023°39'0 0.0
2015-Apr-24 02:33N 37°56' E 023°39'0 0.0
2015-Apr-24 01:33N 37°56' E 023°39'0 0.0
2015-Apr-24 00:34N 37°56' E 023°39'0 0.0
2015-Apr-23 23:33N 37°56' E 023°39'0 0.0
2015-Apr-23 22:34N 37°56' E 023°39'0 0.0
2015-Apr-23 21:33N 37°56' E 023°39'0 0.0
2015-Apr-23 20:33N 37°56' E 023°39'0 0.0
2015-Apr-23 19:34N 37°56' E 023°39'0 0.0
2015-Apr-23 18:34N 37°56' E 023°39'0 0.0
2015-Apr-23 17:33N 37°56' E 023°39'0 0.0
2015-Apr-23 16:33N 37°56' E 023°39'0 0.0
2015-Apr-23 15:34N 37°56' E 023°39'0 0.0
2015-Apr-23 14:34N 37°56' E 023°39'0 0.0
2015-Apr-23 13:34N 37°56' E 023°39'0 0.0
2015-Apr-23 12:34N 37°56' E 023°39'0 0.0
2015-Apr-23 11:34N 37°56' E 023°39'0 0.0
2015-Apr-23 10:33N 37°56' E 023°39'0 0.0
2015-Apr-23 09:34N 37°56' E 023°39'0 0.0
2015-Apr-23 08:34N 37°56' E 023°39'0 0.0
2015-Apr-23 07:33N 37°56' E 023°39'0 0.0
2015-Apr-23 06:34N 37°56' E 023°39'0 0.0
2015-Apr-23 05:33N 37°56' E 023°39'0 0.0
2015-Apr-23 04:34N 37°56' E 023°39'0 0.0
2015-Apr-23 03:34N 37°56' E 023°39'0 0.0
2015-Apr-23 02:34N 37°56' E 023°39'0 0.0
2015-Apr-23 01:33N 37°56' E 023°39'0 0.0
2015-Apr-23 00:33N 37°56' E 023°39'0 0.0
2015-Apr-22 23:33N 37°56' E 023°39'0 0.0
2015-Apr-22 22:34N 37°56' E 023°39'0 0.0
2015-Apr-22 21:33N 37°56' E 023°39'0 0.0
2015-Apr-22 20:34N 37°56' E 023°39'0 0.0
2015-Apr-22 19:34N 37°56' E 023°39'0 0.0
2015-Apr-22 18:34N 37°56' E 023°39'0 0.0
2015-Apr-22 17:34N 37°56' E 023°39'0 0.0
2015-Apr-22 16:34N 37°56' E 023°39'0 0.0
2015-Apr-22 15:34N 37°56' E 023°39'0 0.0
2015-Apr-22 14:34N 37°56' E 023°39'0 0.0
2015-Apr-22 13:34N 37°56' E 023°39'0 0.0
2015-Apr-22 12:34N 37°56' E 023°39'0 0.0
2015-Apr-22 11:33N 37°56' E 023°39'0 0.0
2015-Apr-22 10:34N 37°56' E 023°39'0 0.0
2015-Apr-22 09:33N 37°56' E 023°39'0 0.0
2015-Apr-22 08:33N 37°56' E 023°39'0 0.0
2015-Apr-22 07:33N 37°56' E 023°39'0 0.0
2015-Apr-22 06:33N 37°56' E 023°39'0 0.0
2015-Apr-22 05:33N 37°56' E 023°39'0 0.0
2015-Apr-22 04:34N 37°56' E 023°39'0 0.0
2015-Apr-22 03:33N 37°56' E 023°39'0 0.0
2015-Apr-22 02:33N 37°56' E 023°39'0 0.0
2015-Apr-22 01:32N 37°56' E 023°39'0 0.0
2015-Apr-22 00:33N 37°56' E 023°39'0 0.0
2015-Apr-21 23:33N 37°56' E 023°39'0 0.0
2015-Apr-21 22:33N 37°56' E 023°39'0 0.0
2015-Apr-21 21:34N 37°56' E 023°39'0 0.0
2015-Apr-21 20:34N 37°56' E 023°39'0 0.0
2015-Apr-21 19:34N 37°56' E 023°39'0 0.0
2015-Apr-21 18:33N 37°56' E 023°39'0 0.0
2015-Apr-21 17:33N 37°56' E 023°39'0 0.0
2015-Apr-21 16:34N 37°56' E 023°39'0 0.0
2015-Apr-21 15:33N 37°56' E 023°39'0 0.0
2015-Apr-21 14:33N 37°56' E 023°39'0 0.0
2015-Apr-21 13:34N 37°56' E 023°39'0 0.0
2015-Apr-21 12:34N 37°56' E 023°39'0 0.0
2015-Apr-21 11:34N 37°56' E 023°39'0 0.0
2015-Apr-21 10:33N 37°56' E 023°39'0 0.0
2015-Apr-21 09:33N 37°56' E 023°39'0 0.0
2015-Apr-21 08:33N 37°56' E 023°39'0 0.0
2015-Apr-21 07:33N 37°56' E 023°39'0 0.0
2015-Apr-21 06:33N 37°56' E 023°39'0 0.0
2015-Apr-21 05:33N 37°56' E 023°39'0 0.0
2015-Apr-21 04:34N 37°56' E 023°39'0 0.0
2015-Apr-21 03:33N 37°56' E 023°39'0 0.0
2015-Apr-21 02:34N 37°56' E 023°39'0 0.0
2015-Apr-21 01:33N 37°56' E 023°39'0 0.0
2015-Apr-21 00:34N 37°56' E 023°39'0 0.0
2015-Apr-20 23:33N 37°56' E 023°39'0 0.0
2015-Apr-20 22:33N 37°56' E 023°39'0 0.0
2015-Apr-20 21:34N 37°56' E 023°39'0 0.0
2015-Apr-20 20:34N 37°56' E 023°39'0 0.0
2015-Apr-20 19:34N 37°56' E 023°39'0 0.0
2015-Apr-20 18:33N 37°56' E 023°39'0 0.0
2015-Apr-20 17:34N 37°56' E 023°39'0 0.0
2015-Apr-20 16:33N 37°56' E 023°39'0 0.0
2015-Apr-20 15:33N 37°56' E 023°39'0 0.0
2015-Apr-20 14:33N 37°56' E 023°39'0 0.0
2015-Apr-20 13:33N 37°56' E 023°39'0 0.0
2015-Apr-20 12:34N 37°56' E 023°39'0 0.0
2015-Apr-20 11:34N 37°56' E 023°39'0 0.0
2015-Apr-20 10:33N 37°56' E 023°39'0 0.0
2015-Apr-20 09:33N 37°56' E 023°39'0 0.0
2015-Apr-20 08:33N 37°56' E 023°39'0 0.0
2015-Apr-20 07:34N 37°56' E 023°39'0 0.0
2015-Apr-20 06:33N 37°56' E 023°39'0 0.0
2015-Apr-20 05:34N 37°56' E 023°39'0 0.0
2015-Apr-20 04:33N 37°56' E 023°39'0 0.0
2015-Apr-20 03:33N 37°56' E 023°39'0 0.0
2015-Apr-20 02:33N 37°56' E 023°39'0 0.0
2015-Apr-20 01:34N 37°56' E 023°39'0 0.0
2015-Apr-20 00:32N 37°56' E 023°39'0 0.0
2015-Apr-19 23:34N 37°56' E 023°39'0 0.0
2015-Apr-19 22:33N 37°56' E 023°39'0 0.0
2015-Apr-19 21:34N 37°56' E 023°39'0 0.0
2015-Apr-19 20:34N 37°56' E 023°39'0 0.0
2015-Apr-19 19:33N 37°56' E 023°39'0 0.0
2015-Apr-19 18:33N 37°56' E 023°39'0 0.0
2015-Apr-19 17:33N 37°56' E 023°39'0 0.0
2015-Apr-19 16:33N 37°56' E 023°39'0 0.0
2015-Apr-19 15:33N 37°56' E 023°39'0 0.0
2015-Apr-19 14:34N 37°56' E 023°39'0 0.0
2015-Apr-19 13:34N 37°56' E 023°39'0 0.0
2015-Apr-19 12:34N 37°56' E 023°39'0 0.0
2015-Apr-19 11:33N 37°56' E 023°39'0 0.0
2015-Apr-19 10:34N 37°56' E 023°39'0 0.0
2015-Apr-19 09:34N 37°56' E 023°39'0 0.0
2015-Apr-19 08:33N 37°56' E 023°39'0 0.0
2015-Apr-19 07:33N 37°56' E 023°39'0 0.0
2015-Apr-19 06:33N 37°56' E 023°39'0 0.0
2015-Apr-19 05:33N 37°56' E 023°39'0 0.0
2015-Apr-19 04:33N 37°56' E 023°39'0 0.0
2015-Apr-19 03:33N 37°56' E 023°39'0 0.0
2015-Apr-19 02:34N 37°56' E 023°39'0 0.0
2015-Apr-19 01:34N 37°56' E 023°39'0 0.0
2015-Apr-19 00:33N 37°56' E 023°39'0 0.0
2015-Apr-18 23:34N 37°56' E 023°39'0 0.0
2015-Apr-18 22:33N 37°56' E 023°39'0 0.0
2015-Apr-18 21:34N 37°56' E 023°39'0 0.0
2015-Apr-18 20:34N 37°56' E 023°39'0 0.0
2015-Apr-18 19:34N 37°56' E 023°39'0 0.0
2015-Apr-18 18:34N 37°56' E 023°39'0 0.0
2015-Apr-18 17:34N 37°56' E 023°39'0 0.0
2015-Apr-18 16:33N 37°56' E 023°39'0 0.0
2015-Apr-18 15:33N 37°56' E 023°39'0 0.0
2015-Apr-18 14:33N 37°56' E 023°39'0 0.0
2015-Apr-18 13:33N 37°56' E 023°39'0 0.0
2015-Apr-18 12:34N 37°56' E 023°39'0 0.0
2015-Apr-18 11:34N 37°56' E 023°39'0 0.0
2015-Apr-18 10:33N 37°56' E 023°39'0 0.0
2015-Apr-18 09:33N 37°56' E 023°39'  

Dump ship's entire track history